Time;durP1;ratioP1;P1;durP2;ratioP2;P2;SDS_P1;SDS_P2;PMS_P1;PMS_P2;Temp;Humidity;BMP_temperature;BMP_pressure;BME280_temperature;BME280_humidity;BME280_pressure;Samples;Min_cycle;Max_cycle;Signal;HPM_P1;HPM_P2
2022/07/11 00:06:42;;;;;;;1.63;1.13;;;;;;;12.72;83.66;98345.94;18503422;32;20041;-64
2022/07/11 00:16:44;;;;;;;0.87;0.83;;;;;;;12.58;85.04;98344.81;18502660;32;20075;-64
2022/07/11 00:26:48;;;;;;;1.30;1.07;;;;;;;12.40;85.82;98335.25;18502452;32;20049;-64
2022/07/11 00:36:51;;;;;;;1.63;1.10;;;;;;;12.28;86.29;98320.03;18502061;32;20045;-64
2022/07/11 00:46:54;;;;;;;1.93;1.20;;;;;;;12.13;87.52;98312.66;18499570;32;20136;-64
2022/07/11 00:56:57;;;;;;;1.17;1.07;;;;;;;12.01;87.71;98303.91;18500179;32;20131;-64
2022/07/11 01:07:00;;;;;;;1.30;1.10;;;;;;;11.90;88.22;98299.50;18500042;32;20138;-65
2022/07/11 01:17:03;;;;;;;1.23;1.13;;;;;;;11.80;88.74;98303.78;18499298;32;20048;-64
2022/07/11 01:27:07;;;;;;;2.63;1.40;;;;;;;11.73;89.93;98303.22;18484277;32;20128;-64
2022/07/11 01:37:09;;;;;;;3.13;1.30;;;;;;;11.61;90.59;98300.69;18498121;32;20103;-64
2022/07/11 01:47:11;;;;;;;1.43;1.30;;;;;;;11.48;91.34;98288.44;18497092;32;20053;-64
2022/07/11 01:57:14;;;;;;;1.43;1.33;;;;;;;11.37;91.57;98278.56;18496435;32;20057;-64
2022/07/11 02:08:11;;;;;;;1.93;1.47;;;;;;;11.31;92.37;98285.84;18482105;32;20093;-64
2022/07/11 02:17:39;;;;;;;1.93;1.20;;;;;;;11.24;92.40;98279.06;18495414;32;20061;-64
2022/07/11 02:27:42;;;;;;;2.03;1.53;;;;;;;11.10;92.83;98274.06;18495998;32;20049;-64
2022/07/11 02:37:44;;;;;;;1.37;1.27;;;;;;;10.99;92.78;98267.75;18481203;32;20045;-64
2022/07/11 02:47:47;;;;;;;1.50;1.30;;;;;;;10.87;93.35;98268.97;18495099;32;20338;-64
2022/07/11 02:57:49;;;;;;;2.33;1.47;;;;;;;10.80;94.13;98263.81;18494543;32;20376;-64
2022/07/11 03:07:51;;;;;;;2.50;1.70;;;;;;;10.71;94.54;98271.53;18494608;32;20045;-64
2022/07/11 03:17:53;;;;;;;1.97;1.17;;;;;;;10.60;94.86;98267.12;18494141;32;20090;-64
2022/07/11 03:27:56;;;;;;;4.23;1.40;;;;;;;10.47;94.74;98255.63;18502058;32;20049;-64
2022/07/11 03:37:58;;;;;;;1.70;1.60;;;;;;;10.39;95.36;98248.00;18491129;32;20098;-64
2022/07/11 03:48:00;;;;;;;2.10;1.43;;;;;;;10.33;96.05;98259.78;18491045;32;20107;-64
2022/07/11 03:58:03;;;;;;;2.07;1.40;;;;;;;10.30;96.21;98268.41;18503792;32;20116;-64
2022/07/11 04:08:05;;;;;;;2.03;1.50;;;;;;;10.25;95.78;98268.31;18502399;32;20049;-64
2022/07/11 04:18:07;;;;;;;1.43;1.30;;;;;;;10.25;96.18;98271.03;18502773;32;20048;-64
2022/07/11 04:28:09;;;;;;;1.97;1.33;;;;;;;10.31;96.45;98273.53;18488137;32;20349;-64
2022/07/11 04:38:12;;;;;;;2.60;1.10;;;;;;;10.42;96.46;98279.91;18486682;32;20045;-63
2022/07/11 04:48:14;;;;;;;3.00;1.23;;;;;;;10.62;96.46;98278.47;18501536;32;20117;-63
2022/07/11 04:58:16;;;;;;;2.20;1.50;;;;;;;10.95;95.62;98279.31;18500497;32;20052;-63
2022/07/11 05:08:19;;;;;;;2.30;1.43;;;;;;;11.25;95.22;98289.62;18500366;32;20053;-63
2022/07/11 05:18:22;;;;;;;1.20;1.10;;;;;;;11.63;94.46;98295.00;18472337;32;20433;-63
2022/07/11 05:28:24;;;;;;;1.33;1.07;;;;;;;12.02;93.78;98283.88;18498450;32;20449;-63
2022/07/11 05:38:27;;;;;;;4.03;1.97;;;;;;;12.42;92.29;98293.22;18483914;32;20097;-63
2022/07/11 05:48:29;;;;;;;2.70;1.50;;;;;;;12.80;91.79;98298.47;18496713;32;20045;-63
2022/07/11 05:58:32;;;;;;;3.03;1.47;;;;;;;13.23;90.37;98308.00;18496757;32;20108;-63
2022/07/11 06:08:40;;;;;;;1.20;1.07;;;;;;;13.72;88.84;98313.97;18496450;32;20057;-63
2022/07/11 06:18:43;;;;;;;2.63;1.33;;;;;;;14.21;87.63;98296.97;18495961;32;20085;-63
2022/07/11 06:28:45;;;;;;;2.53;1.52;;;;;;;14.79;85.32;98311.16;18496050;32;20049;-63
2022/07/11 06:38:48;;;;;;;4.85;2.22;;;;;;;15.40;81.61;98302.50;18481944;32;20105;-63
2022/07/11 06:48:50;;;;;;;3.33;1.45;;;;;;;15.94;71.54;98310.75;18495055;32;20060;-63
2022/07/11 06:58:53;;;;;;;2.10;1.12;;;;;;;16.45;71.76;98303.06;18484637;32;20093;-63
2022/07/11 07:08:55;;;;;;;2.97;1.10;;;;;;;17.05;67.61;98310.69;18506938;32;20054;-63
2022/07/11 07:18:58;;;;;;;2.40;1.05;;;;;;;17.67;64.47;98312.41;18506446;32;20090;-63
2022/07/11 07:29:01;;;;;;;1.77;0.87;;;;;;;18.19;62.57;98310.34;18505887;32;20100;-63
2022/07/11 07:39:08;;;;;;;2.70;0.70;;;;;;;18.70;58.59;98302.19;18505358;32;20065;-63
2022/07/11 07:49:16;;;;;;;2.87;1.02;;;;;;;19.08;56.89;98310.13;18504582;32;20104;-63
2022/07/11 07:59:24;;;;;;;2.17;0.70;;;;;;;19.61;55.34;98309.34;18504118;32;20049;-63
2022/07/11 08:09:29;;;;;;;2.37;1.10;;;;;;;19.96;53.85;98314.22;18488546;32;20088;-62
2022/07/11 08:19:32;;;;;;;1.92;0.70;;;;;;;20.46;51.83;98313.12;18502819;32;20322;-63
2022/07/11 08:29:36;;;;;;;4.30;1.17;;;;;;;20.67;52.18;98304.28;18502180;32;20432;-63
2022/07/11 08:39:40;;;;;;;2.67;0.80;;;;;;;21.11;51.15;98296.88;18501649;32;20053;-63
2022/07/11 08:49:49;;;;;;;3.83;1.00;;;;;;;21.55;50.86;98299.59;18500796;32;20051;-63
2022/07/11 08:59:54;;;;;;;;;;;;;;;21.73;48.35;98295.66;18500570;32;20104;-62
2022/07/11 09:09:58;;;;;;;5.72;1.42;;;;;;;22.13;48.84;98289.00;18486606;32;19949;-62
2022/07/11 09:20:02;;;;;;;2.08;1.00;;;;;;;22.41;46.36;98297.66;18485299;32;20088;-62
2022/07/11 09:30:29;;;;;;;1.65;0.90;;;;;;;22.47;48.47;98285.31;18497271;32;20045;-62
2022/07/11 09:40:33;;;;;;;1.80;1.15;;;;;;;22.70;47.94;98273.16;18498521;32;20136;-62
2022/07/11 09:50:37;;;;;;;1.35;0.90;;;;;;;22.63;45.52;98274.47;18496449;32;20041;-62
2022/07/11 10:00:40;;;;;;;1.98;0.85;;;;;;;23.08;47.96;98263.91;18496603;32;20057;-63
2022/07/11 10:10:44;;;;;;;2.78;1.00;;;;;;;23.68;44.69;98269.97;18496371;32;20053;-62
2022/07/11 10:21:06;;;;;;;2.10;1.00;;;;;;;23.87;44.63;98272.19;18496020;32;20434;-62
2022/07/11 10:31:20;;;;;;;2.13;1.40;;;;;;;23.91;46.15;98277.87;18495937;32;20460;-62
2022/07/11 10:41:25;;;;;;;1.83;1.15;;;;;;;24.21;44.64;98272.13;18508980;32;20057;-63
2022/07/11 10:51:37;;;;;;;3.20;1.12;;;;;;;24.55;45.72;98257.00;18494102;32;20041;-62
2022/07/11 11:02:05;;;;;;;;;;;;;;;24.61;41.97;98254.78;18507972;32;20063;-62
2022/07/11 11:12:08;;;;;;;1.20;0.80;;;;;;;25.18;40.78;98252.91;18507334;32;20320;-62
2022/07/11 11:22:19;;;;;;;1.85;1.20;;;;;;;25.24;41.12;98245.16;18506736;32;20093;-62
2022/07/11 11:32:34;;;;;;;6.47;1.10;;;;;;;25.96;41.53;98239.53;18492097;32;20093;-62
2022/07/11 11:42:39;;;;;;;1.60;0.90;;;;;;;25.76;41.26;98243.38;18505158;32;20045;-62
2022/07/11 11:52:42;;;;;;;1.98;0.95;;;;;;;26.37;40.39;98242.88;18490087;32;20089;-62
2022/07/11 12:02:45;;;;;;;2.33;1.00;;;;;;;26.98;40.86;98234.28;18503874;32;20045;-62
2022/07/11 12:12:49;;;;;;;1.95;1.10;;;;;;;27.17;40.11;98214.81;18503937;32;20381;-63
2022/07/11 12:22:52;;;;;;;1.00;0.65;;;;;;;27.65;41.97;98224.84;18502143;32;20437;-62
2022/07/11 12:33:13;;;;;;;0.85;0.70;;;;;;;28.26;41.40;98217.50;18502389;32;20061;-62
2022/07/11 12:44:57;;;;;;;;;;;;;;;28.56;40.95;98202.81;18501623;32;20053;-63
2022/07/11 12:54:03;;;;;;;1.13;0.60;;;;;;;29.06;37.16;98200.66;18485958;32;20229;-62
2022/07/11 13:04:06;;;;;;;2.40;0.70;;;;;;;29.06;41.95;98188.72;18500104;32;20353;-62
2022/07/11 13:15:08;;;;;;;1.70;0.75;;;;;;;29.19;38.70;98186.47;18499364;32;20036;-62
2022/07/11 13:24:32;;;;;;;1.02;0.82;;;;;;;29.51;37.16;98188.81;18498943;32;20428;-62
2022/07/11 13:34:34;;;;;;;1.40;0.90;;;;;;;29.31;36.27;98183.44;18498134;32;20455;-62
2022/07/11 13:44:37;;;;;;;1.52;0.90;;;;;;;29.80;37.05;98183.47;18483199;32;20053;-62
2022/07/11 13:54:40;;;;;;;1.37;0.75;;;;;;;30.73;40.19;98189.63;18483066;32;20075;-61
2022/07/11 14:04:43;;;;;;;1.40;0.90;;;;;;;30.59;32.94;98186.81;18495564;32;20093;-61
2022/07/11 14:14:46;;;;;;;1.20;0.90;;;;;;;30.84;35.01;98172.94;18481496;32;20057;-61
2022/07/11 14:24:49;;;;;;;2.45;1.08;;;;;;;31.37;36.17;98156.69;18481586;32;20041;-62
2022/07/11 14:34:51;;;;;;;1.30;0.90;;;;;;;31.54;36.83;98171.87;18494361;32;20401;-62
2022/07/11 14:44:54;;;;;;;2.37;1.20;;;;;;;32.04;35.51;98159.88;18495461;32;20050;-61
2022/07/11 14:54:58;;;;;;;1.00;0.90;;;;;;;31.81;33.56;98152.75;18494873;32;20102;-61
2022/07/11 15:05:02;;;;;;;1.37;1.05;;;;;;;31.08;34.60;98146.31;18495112;32;20369;-61
2022/07/11 15:15:06;;;;;;;3.00;1.10;;;;;;;29.43;37.48;98134.22;18494459;32;20060;-62
2022/07/11 15:25:09;;;;;;;1.95;1.25;;;;;;;28.68;38.41;98124.69;18503722;32;20072;-61
2022/07/11 15:35:12;;;;;;;1.02;0.93;;;;;;;28.26;39.80;98120.19;18491581;32;20053;-62
2022/07/11 15:45:15;;;;;;;2.15;1.00;;;;;;;27.48;41.23;98120.63;18505310;32;20079;-62
2022/07/11 15:55:19;;;;;;;2.37;1.05;;;;;;;27.09;41.73;98107.62;18477205;32;20053;-62
2022/07/11 16:05:21;;;;;;;0.93;0.70;;;;;;;26.84;42.84;98107.19;18503848;32;20052;-62
2022/07/11 16:15:25;;;;;;;1.30;1.08;;;;;;;26.45;43.46;98099.69;18503349;32;20091;-62
2022/07/11 16:25:28;;;;;;;1.85;1.20;;;;;;;26.31;44.87;98099.38;18501939;32;20085;-62
2022/07/11 16:35:31;;;;;;;1.17;0.80;;;;;;;26.21;43.94;98111.84;18474930;32;20333;-62
2022/07/11 16:45:34;;;;;;;2.95;1.10;;;;;;;26.29;44.02;98121.91;18501715;32;20429;-62
2022/07/11 16:55:38;;;;;;;2.37;1.20;;;;;;;26.83;43.36;98120.25;18500342;32;20102;-62
2022/07/11 17:05:42;;;;;;;6.28;1.33;;;;;;;26.35;44.63;98127.97;18500268;32;20105;-61
2022/07/11 17:15:45;;;;;;;2.80;1.05;;;;;;;25.83;46.06;98129.97;18485244;32;20082;-61
2022/07/11 17:25:48;;;;;;;3.33;1.30;;;;;;;25.63;46.25;98126.34;18498774;32;20073;-61
2022/07/11 17:35:52;;;;;;;3.00;1.20;;;;;;;25.73;45.86;98116.69;18483989;32;20331;-61
2022/07/11 17:45:54;;;;;;;3.33;1.30;;;;;;;25.39;46.05;98127.34;18484058;32;20479;-61
2022/07/11 17:55:57;;;;;;;1.40;1.15;;;;;;;25.14;47.06;98121.94;18496991;32;20052;-62
2022/07/11 18:06:00;;;;;;;1.52;1.23;;;;;;;25.30;46.46;98139.38;18483230;32;20052;-62
2022/07/11 18:16:03;;;;;;;3.58;1.12;;;;;;;29.09;39.47;98143.41;18482372;32;20459;-62
2022/07/11 18:26:07;;;;;;;3.12;1.27;;;;;;;29.03;38.54;98133.81;18496347;32;20098;-62
2022/07/11 18:36:17;;;;;;;1.40;1.30;;;;;;;25.81;44.69;98137.84;18482564;32;20380;-62
2022/07/11 18:46:20;;;;;;;1.17;1.08;;;;;;;24.59;47.47;98135.47;18481299;32;20049;-62
2022/07/11 18:56:23;;;;;;;1.37;0.95;;;;;;;24.01;48.13;98137.34;18500296;32;20064;-62
2022/07/11 19:06:26;;;;;;;1.23;0.82;;;;;;;23.61;49.40;98140.81;18507335;32;20097;-62
2022/07/11 19:16:29;;;;;;;2.50;0.85;;;;;;;23.35;50.12;98154.91;18506737;32;20064;-62
2022/07/11 19:26:32;;;;;;;1.23;1.10;;;;;;;23.04;51.77;98158.97;18506373;32;20480;-62
2022/07/11 19:36:36;;;;;;;1.98;1.15;;;;;;;22.78;52.41;98167.53;18505761;32;20422;-61
2022/07/11 19:46:39;;;;;;;2.45;1.23;;;;;;;22.38;54.13;98174.34;18491360;32;20360;-62
2022/07/11 20:07:03;;;;;;;1.23;0.77;;;;;;;21.69;55.66;98190.09;18502250;32;20045;-61
2022/07/11 20:17:06;;;;;;;2.55;0.95;;;;;;;21.26;59.31;98202.84;18503387;32;20053;-62
2022/07/11 20:27:13;;;;;;;1.92;1.02;;;;;;;20.73;61.91;98210.34;18489506;32;20155;-62
2022/07/11 20:37:16;;;;;;;1.67;0.87;;;;;;;20.17;65.26;98207.38;18502353;32;20054;-62
2022/07/11 20:47:19;;;;;;;5.53;1.33;;;;;;;19.90;63.42;98220.25;18501558;32;20481;-62
2022/07/11 20:57:21;;;;;;;1.43;1.23;;;;;;;19.60;66.02;98232.84;18434704;32;20075;-62
2022/07/11 21:07:24;;;;;;;1.93;1.10;;;;;;;19.27;67.20;98247.69;18435678;32;20505;-62
2022/07/11 21:17:26;;;;;;;1.83;0.80;;;;;;;18.98;68.88;98250.06;18446521;32;20049;-61
2022/07/11 21:27:29;;;;;;;4.97;1.15;;;;;;;18.68;70.87;98249.63;18446324;32;20068;-62
2022/07/11 21:37:31;;;;;;;2.92;1.70;;;;;;;18.39;73.16;98248.06;18432723;32;20087;-61
2022/07/11 21:47:35;;;;;;;2.10;1.27;;;;;;;18.11;75.81;98261.81;18433168;32;20080;-62
2022/07/11 21:57:37;;;;;;;1.57;0.90;;;;;;;17.83;76.80;98261.78;18489028;32;20195;-61
2022/07/11 22:07:39;;;;;;;1.20;0.80;;;;;;;17.48;77.30;98279.66;18496735;32;20156;-62
2022/07/11 22:17:42;;;;;;;1.83;1.17;;;;;;;17.13;77.91;98279.97;18482143;32;20053;-62
2022/07/11 22:27:44;;;;;;;1.12;0.98;;;;;;;16.88;78.80;98279.22;18495275;32;20379;-61
2022/07/11 22:37:47;;;;;;;3.15;1.17;;;;;;;16.64;79.45;98278.50;18495546;32;20061;-61
2022/07/11 22:47:50;;;;;;;3.47;1.17;;;;;;;16.41;80.59;98270.06;18495223;32;20056;-62
2022/07/11 22:57:53;;;;;;;1.55;0.90;;;;;;;16.20;81.88;98269.53;18495443;32;20433;-62
2022/07/11 23:07:55;;;;;;;2.15;1.10;;;;;;;16.00;82.95;98276.84;18480124;32;20053;-62
2022/07/11 23:17:58;;;;;;;1.40;1.00;;;;;;;15.83;84.12;98280.03;18493442;32;20045;-62
2022/07/11 23:28:01;;;;;;;1.42;1.15;;;;;;;15.68;85.09;98277.44;18494302;32;20079;-62
2022/07/11 23:38:03;;;;;;;1.00;0.90;;;;;;;15.48;85.81;98273.00;18479928;32;20053;-62
2022/07/11 23:48:05;;;;;;;1.83;1.10;;;;;;;15.31;86.53;98276.97;18505683;32;20075;-62
2022/07/11 23:58:08;;;;;;;1.48;1.10;;;;;;;15.15;87.54;98281.72;18451368;32;20066;-62
